Wallingford, Connecticut
Current Conditions -  °F | °C
As of 11:53 PM on Saturday 25 Oct 2014 (Local Time) from KMMK Reporting Station
Broken Clouds Broken Clouds  
Wind Chill: 10°   Ceiling: 11000
Heat Index: 10°   Visibility: 7mi
Dew Point:   Wind: 0mph
Humidity: 89%   Direction: NA
Pressure: 29.54"   Gusts: NA
Location:  41.46°N, 72.82°W
Report Text: KMMK 260353Z AUTO 00000KT 7SM FEW070 BKN110 10/08 A2954 RMK AO2 SLP003 T01000083 TSNO
Loading
Personal Weather Stations






























Interactive Weather Map
Tropical Storm Tracking
New forecast layout! Learn more

10-Day Weather Forecast

Advertisements
Track Severe Weather on mobile